Aeroporto :
LOGIN :

Iscrizione | Disclaimer

   EN    FR    IT 

 










Sommario :    VFR   VFR Marginale   IFR   IFR Intensivo   IFR Molto Intensivo
Visibilità : 
Base nubi : 
>= 8 km
>= 3000ft
5 / 8 km
1000 / 3000 ft
1500m / 5 km
500 / 1000 ft
800 / 1500m
200 / 500 ft
< 800m
< 200 ft
Simboli :   Temporali  Nebbia  Neve Forte  Precipitazioni Forti  Vento > 20 kt
SIGMETs :   Varie  Temporali  Ghiacco  Turbolenza  Onda orograficha  Ceneri Vulcaniche







- Altitudine del aeroporto : 256 ft
- Codice IATA : CFR
- Carte del aeroporto


LFRK - Caen

ULTIMO METAR :
  • 191430Z AUTO 01010KT CAVOK 18/09 Q1026 NOSIG

METARs OBSOLETI :
  • 191400Z AUTO 36010KT CAVOK 19/10 Q1026 NOSIG
  • 191330Z AUTO 35009KT 320V020 CAVOK 20/10 Q1026 NOSIG
  • 191300Z AUTO 36008KT 330V040 CAVOK 21/10 Q1026 NOSIG
  • 191230Z AUTO 36008KT 330V040 CAVOK 20/09 Q1025 NOSIG
  • 191200Z AUTO 01007KT 340V050 CAVOK 20/10 Q1025 NOSIG

TAF TAF LFRK
Valido dal 19 a 15 ore il 20 a 00 ore UTC


191400Z 1915/1924 01010KT CAVOK
BECMG 1916/1918 02005KT
BECMG 1920/1922 3000 BR
PROB40
TEMPO 1922/1924 0500 BCFG
Met : +33 2 31 26 68 11
Nessun NOTAM noto per questo aeroporto.



MetMap, La meteo Aeronautica in un colpo d'occhio ! - Copyright ORBIFLY Dicembre 2007 - Disclaimer

ORBIFLY MET'MAP TEAM :

Programmazione e sviluppo : Alexandra Zaïnal
Concezione e sviluppo : Baudouin d'Aumeries
Co-Programmazione e sviluppo : Marc-Olivier Méhu
Supporto tecnico e logistico : Manuel Goepfert
Aiuto per la traduzione : Arnaldo La Scala

Contatto : metmap@orbifly.com




FONTI E CREDITI :

   NOAA